sensor_id;sensor_type;location;lat;lon;timestamp;temperature;humidity
29281;DHT22;25048;49.590;11.026;2023-05-15T00:00:26;10.30;99.90
29281;DHT22;25048;49.590;11.026;2023-05-15T00:02:53;10.30;99.90
29281;DHT22;25048;49.590;11.026;2023-05-15T00:05:22;10.30;99.90
29281;DHT22;25048;49.590;11.026;2023-05-15T00:07:50;10.20;99.90
29281;DHT22;25048;49.590;11.026;2023-05-15T00:10:17;10.20;99.90
29281;DHT22;25048;49.590;11.026;2023-05-15T00:12:45;10.10;99.90
29281;DHT22;25048;49.590;11.026;2023-05-15T00:15:12;10.10;99.90
29281;DHT22;25048;49.590;11.026;2023-05-15T00:17:40;10.00;99.90
29281;DHT22;25048;49.590;11.026;2023-05-15T00:20:07;10.00;99.90
29281;DHT22;25048;49.590;11.026;2023-05-15T00:22:35;9.90;99.90
29281;DHT22;25048;49.590;11.026;2023-05-15T00:25:03;9.90;99.90
29281;DHT22;25048;49.590;11.026;2023-05-15T00:27:31;9.90;99.90
29281;DHT22;25048;49.590;11.026;2023-05-15T00:29:58;9.80;99.90
29281;DHT22;25048;49.590;11.026;2023-05-15T00:32:26;9.80;99.90
29281;DHT22;25048;49.590;11.026;2023-05-15T00:34:53;9.80;99.90
29281;DHT22;25048;49.590;11.026;2023-05-15T00:37:22;9.80;99.90
29281;DHT22;25048;49.590;11.026;2023-05-15T00:39:50;9.80;99.90
29281;DHT22;25048;49.590;11.026;2023-05-15T00:42:17;9.70;99.90
29281;DHT22;25048;49.590;11.026;2023-05-15T00:44:46;9.70;99.90
29281;DHT22;25048;49.590;11.026;2023-05-15T00:47:15;9.70;99.90
29281;DHT22;25048;49.590;11.026;2023-05-15T00:49:43;9.60;99.90
29281;DHT22;25048;49.590;11.026;2023-05-15T00:52:11;9.60;99.90
29281;DHT22;25048;49.590;11.026;2023-05-15T00:54:38;9.50;99.90
29281;DHT22;25048;49.590;11.026;2023-05-15T00:57:07;9.50;99.90
29281;DHT22;25048;49.590;11.026;2023-05-15T00:59:35;9.50;99.90
29281;DHT22;25048;49.590;11.026;2023-05-15T01:02:05;9.40;99.90
29281;DHT22;25048;49.590;11.026;2023-05-15T01:04:33;9.40;99.90
29281;DHT22;25048;49.590;11.026;2023-05-15T01:07:00;9.40;99.90
29281;DHT22;25048;49.590;11.026;2023-05-15T01:09:29;9.40;99.90
29281;DHT22;25048;49.590;11.026;2023-05-15T01:11:58;9.40;99.90
29281;DHT22;25048;49.590;11.026;2023-05-15T01:14:26;9.40;99.90
29281;DHT22;25048;49.590;11.026;2023-05-15T01:16:54;9.40;99.90
29281;DHT22;25048;49.590;11.026;2023-05-15T01:19:22;9.40;99.90
29281;DHT22;25048;49.590;11.026;2023-05-15T01:27:34;9.40;99.90
29281;DHT22;25048;49.590;11.026;2023-05-15T01:30:19;9.50;99.90
29281;DHT22;25048;49.590;11.026;2023-05-15T01:32:46;9.50;99.90
29281;DHT22;25048;49.590;11.026;2023-05-15T01:35:17;9.50;99.90
29281;DHT22;25048;49.590;11.026;2023-05-15T01:37:47;9.50;99.90
29281;DHT22;25048;49.590;11.026;2023-05-15T01:40:17;9.40;99.90
29281;DHT22;25048;49.590;11.026;2023-05-15T01:42:53;9.50;99.90
29281;DHT22;25048;49.590;11.026;2023-05-15T01:45:22;9.40;99.90
29281;DHT22;25048;49.590;11.026;2023-05-15T01:47:51;9.40;99.90
29281;DHT22;25048;49.590;11.026;2023-05-15T01:50:20;9.40;99.90
29281;DHT22;25048;49.590;11.026;2023-05-15T01:52:50;9.30;99.90
29281;DHT22;25048;49.590;11.026;2023-05-15T01:55:18;9.30;99.90
29281;DHT22;25048;49.590;11.026;2023-05-15T01:57:49;9.30;99.90
29281;DHT22;25048;49.590;11.026;2023-05-15T02:00:17;9.30;99.90
29281;DHT22;25048;49.590;11.026;2023-05-15T02:02:45;9.20;99.90
29281;DHT22;25048;49.590;11.026;2023-05-15T02:05:15;9.10;99.90
29281;DHT22;25048;49.590;11.026;2023-05-15T02:07:44;9.10;99.90
29281;DHT22;25048;49.590;11.026;2023-05-15T02:10:13;9.10;99.90
29281;DHT22;25048;49.590;11.026;2023-05-15T02:12:41;9.00;99.90
29281;DHT22;25048;49.590;11.026;2023-05-15T02:15:10;9.00;99.90
29281;DHT22;25048;49.590;11.026;2023-05-15T02:17:37;8.90;99.90
29281;DHT22;25048;49.590;11.026;2023-05-15T02:20:06;8.90;99.90
29281;DHT22;25048;49.590;11.026;2023-05-15T02:22:34;8.80;99.90
29281;DHT22;25048;49.590;11.026;2023-05-15T02:25:01;8.80;99.90
29281;DHT22;25048;49.590;11.026;2023-05-15T02:27:45;8.80;99.90
29281;DHT22;25048;49.590;11.026;2023-05-15T02:35:42;8.60;99.90
29281;DHT22;25048;49.590;11.026;2023-05-15T02:38:18;8.60;99.90
29281;DHT22;25048;49.590;11.026;2023-05-15T02:40:44;8.50;99.90
29281;DHT22;25048;49.590;11.026;2023-05-15T02:43:12;8.50;99.90
29281;DHT22;25048;49.590;11.026;2023-05-15T02:45:42;8.50;99.90
29281;DHT22;25048;49.590;11.026;2023-05-15T02:48:11;8.40;99.90
29281;DHT22;25048;49.590;11.026;2023-05-15T02:50:39;8.40;99.90
29281;DHT22;25048;49.590;11.026;2023-05-15T02:53:07;8.30;99.90
29281;DHT22;25048;49.590;11.026;2023-05-15T02:55:36;8.20;99.90
29281;DHT22;25048;49.590;11.026;2023-05-15T02:58:04;8.10;99.90
29281;DHT22;25048;49.590;11.026;2023-05-15T03:00:31;8.10;99.90
29281;DHT22;25048;49.590;11.026;2023-05-15T03:02:59;8.00;99.90
29281;DHT22;25048;49.590;11.026;2023-05-15T03:05:27;7.90;99.90
29281;DHT22;25048;49.590;11.026;2023-05-15T03:07:55;7.90;99.90
29281;DHT22;25048;49.590;11.026;2023-05-15T03:10:23;7.90;99.90
29281;DHT22;25048;49.590;11.026;2023-05-15T03:12:50;7.80;99.90
29281;DHT22;25048;49.590;11.026;2023-05-15T03:15:18;7.70;99.90
29281;DHT22;25048;49.590;11.026;2023-05-15T03:17:45;7.70;99.90
29281;DHT22;25048;49.590;11.026;2023-05-15T03:20:13;7.70;99.90
29281;DHT22;25048;49.590;11.026;2023-05-15T03:22:41;7.70;99.90
29281;DHT22;25048;49.590;11.026;2023-05-15T03:25:11;7.70;99.90
29281;DHT22;25048;49.590;11.026;2023-05-15T03:27:39;7.60;99.90
29281;DHT22;25048;49.590;11.026;2023-05-15T03:30:07;7.60;99.90
29281;DHT22;25048;49.590;11.026;2023-05-15T03:32:34;7.60;99.90
29281;DHT22;25048;49.590;11.026;2023-05-15T03:35:02;7.60;99.90
29281;DHT22;25048;49.590;11.026;2023-05-15T03:37:30;7.60;99.90
29281;DHT22;25048;49.590;11.026;2023-05-15T03:39:57;7.50;99.90
29281;DHT22;25048;49.590;11.026;2023-05-15T03:42:25;7.50;99.90
29281;DHT22;25048;49.590;11.026;2023-05-15T03:44:53;7.50;99.90
29281;DHT22;25048;49.590;11.026;2023-05-15T03:47:21;7.40;99.90
29281;DHT22;25048;49.590;11.026;2023-05-15T03:49:49;7.40;99.90
29281;DHT22;25048;49.590;11.026;2023-05-15T03:52:16;7.30;99.90
29281;DHT22;25048;49.590;11.026;2023-05-15T03:54:47;7.40;99.90
29281;DHT22;25048;49.590;11.026;2023-05-15T03:57:16;7.40;99.90
29281;DHT22;25048;49.590;11.026;2023-05-15T03:59:43;7.40;99.90
29281;DHT22;25048;49.590;11.026;2023-05-15T04:02:11;7.50;99.90
29281;DHT22;25048;49.590;11.026;2023-05-15T04:04:38;7.50;99.90
29281;DHT22;25048;49.590;11.026;2023-05-15T04:07:06;7.50;99.90
29281;DHT22;25048;49.590;11.026;2023-05-15T04:09:33;7.50;99.90
29281;DHT22;25048;49.590;11.026;2023-05-15T04:12:01;7.50;99.90
29281;DHT22;25048;49.590;11.026;2023-05-15T04:14:28;7.50;99.90
29281;DHT22;25048;49.590;11.026;2023-05-15T04:16:56;7.50;99.90
29281;DHT22;25048;49.590;11.026;2023-05-15T04:19:23;7.50;99.90
29281;DHT22;25048;49.590;11.026;2023-05-15T04:21:51;7.40;99.90
29281;DHT22;25048;49.590;11.026;2023-05-15T04:24:18;7.50;99.90
29281;DHT22;25048;49.590;11.026;2023-05-15T04:26:46;7.50;99.90
29281;DHT22;25048;49.590;11.026;2023-05-15T04:29:13;7.50;99.90
29281;DHT22;25048;49.590;11.026;2023-05-15T04:31:41;7.50;99.90
29281;DHT22;25048;49.590;11.026;2023-05-15T04:34:08;7.50;99.90
29281;DHT22;25048;49.590;11.026;2023-05-15T04:36:36;7.60;99.90
29281;DHT22;25048;49.590;11.026;2023-05-15T04:39:03;7.60;99.90
29281;DHT22;25048;49.590;11.026;2023-05-15T04:41:32;7.60;99.90
29281;DHT22;25048;49.590;11.026;2023-05-15T04:43:59;7.70;99.90
29281;DHT22;25048;49.590;11.026;2023-05-15T04:46:27;7.70;99.90
29281;DHT22;25048;49.590;11.026;2023-05-15T04:48:55;7.80;99.90
29281;DHT22;25048;49.590;11.026;2023-05-15T04:51:22;7.90;99.90
29281;DHT22;25048;49.590;11.026;2023-05-15T04:53:50;8.00;99.90
29281;DHT22;25048;49.590;11.026;2023-05-15T04:56:17;8.10;99.90
29281;DHT22;25048;49.590;11.026;2023-05-15T04:58:45;8.30;99.90
29281;DHT22;25048;49.590;11.026;2023-05-15T05:01:12;8.40;99.90
29281;DHT22;25048;49.590;11.026;2023-05-15T05:03:40;8.50;99.90
29281;DHT22;25048;49.590;11.026;2023-05-15T05:06:07;8.60;99.90
29281;DHT22;25048;49.590;11.026;2023-05-15T05:08:35;8.70;99.90
29281;DHT22;25048;49.590;11.026;2023-05-15T05:11:02;8.90;99.90
29281;DHT22;25048;49.590;11.026;2023-05-15T05:13:30;9.00;99.90
29281;DHT22;25048;49.590;11.026;2023-05-15T05:15:57;9.20;99.90
29281;DHT22;25048;49.590;11.026;2023-05-15T05:18:25;9.50;99.90
29281;DHT22;25048;49.590;11.026;2023-05-15T05:21:00;9.80;99.90
29281;DHT22;25048;49.590;11.026;2023-05-15T05:23:29;10.20;99.90
29281;DHT22;25048;49.590;11.026;2023-05-15T05:25:57;10.50;99.90
29281;DHT22;25048;49.590;11.026;2023-05-15T05:28:25;10.80;99.90
29281;DHT22;25048;49.590;11.026;2023-05-15T05:30:52;11.10;99.90
29281;DHT22;25048;49.590;11.026;2023-05-15T05:33:20;11.30;99.90
29281;DHT22;25048;49.590;11.026;2023-05-15T05:35:47;11.60;99.90
29281;DHT22;25048;49.590;11.026;2023-05-15T05:38:15;11.80;99.90
29281;DHT22;25048;49.590;11.026;2023-05-15T05:40:42;12.30;99.90
29281;DHT22;25048;49.590;11.026;2023-05-15T05:43:10;12.70;99.90
29281;DHT22;25048;49.590;11.026;2023-05-15T05:45:37;13.30;99.90
29281;DHT22;25048;49.590;11.026;2023-05-15T05:48:05;13.80;99.90
29281;DHT22;25048;49.590;11.026;2023-05-15T05:50:32;14.30;99.90
29281;DHT22;25048;49.590;11.026;2023-05-15T05:53:00;14.70;99.90
29281;DHT22;25048;49.590;11.026;2023-05-15T05:55:27;15.30;99.90
29281;DHT22;25048;49.590;11.026;2023-05-15T05:57:55;15.80;99.90
29281;DHT22;25048;49.590;11.026;2023-05-15T06:00:24;16.20;99.90
29281;DHT22;25048;49.590;11.026;2023-05-15T06:02:57;16.50;99.90
29281;DHT22;25048;49.590;11.026;2023-05-15T06:05:25;16.70;99.90
29281;DHT22;25048;49.590;11.026;2023-05-15T06:07:54;17.20;99.90
29281;DHT22;25048;49.590;11.026;2023-05-15T06:10:21;17.50;99.90
29281;DHT22;25048;49.590;11.026;2023-05-15T06:12:49;17.50;99.90
29281;DHT22;25048;49.590;11.026;2023-05-15T06:15:17;17.60;99.90
29281;DHT22;25048;49.590;11.026;2023-05-15T06:17:45;17.80;99.90
29281;DHT22;25048;49.590;11.026;2023-05-15T06:20:13;18.10;99.90
29281;DHT22;25048;49.590;11.026;2023-05-15T06:22:41;18.40;99.90
29281;DHT22;25048;49.590;11.026;2023-05-15T06:25:09;18.30;99.90
29281;DHT22;25048;49.590;11.026;2023-05-15T06:27:41;18.40;99.90
29281;DHT22;25048;49.590;11.026;2023-05-15T06:30:09;18.50;99.90
29281;DHT22;25048;49.590;11.026;2023-05-15T06:32:37;18.50;99.90
29281;DHT22;25048;49.590;11.026;2023-05-15T06:35:07;18.60;99.90
29281;DHT22;25048;49.590;11.026;2023-05-15T06:37:34;18.50;99.90
29281;DHT22;25048;49.590;11.026;2023-05-15T06:40:03;18.40;99.90
29281;DHT22;25048;49.590;11.026;2023-05-15T06:42:31;18.40;99.90
29281;DHT22;25048;49.590;11.026;2023-05-15T06:44:58;18.40;99.90
29281;DHT22;25048;49.590;11.026;2023-05-15T06:47:26;18.40;99.90
29281;DHT22;25048;49.590;11.026;2023-05-15T06:49:54;18.30;99.90
29281;DHT22;25048;49.590;11.026;2023-05-15T06:52:22;18.40;99.90
29281;DHT22;25048;49.590;11.026;2023-05-15T06:54:49;18.40;99.90
29281;DHT22;25048;49.590;11.026;2023-05-15T06:57:18;18.30;99.90
29281;DHT22;25048;49.590;11.026;2023-05-15T06:59:45;18.30;99.90
29281;DHT22;25048;49.590;11.026;2023-05-15T07:02:13;18.30;99.90
29281;DHT22;25048;49.590;11.026;2023-05-15T07:04:41;18.40;99.90
29281;DHT22;25048;49.590;11.026;2023-05-15T07:07:08;18.50;99.90
29281;DHT22;25048;49.590;11.026;2023-05-15T07:09:36;18.50;99.90
29281;DHT22;25048;49.590;11.026;2023-05-15T07:12:04;18.60;99.90
29281;DHT22;25048;49.590;11.026;2023-05-15T07:14:32;18.50;99.90
29281;DHT22;25048;49.590;11.026;2023-05-15T07:16:59;18.40;99.90
29281;DHT22;25048;49.590;11.026;2023-05-15T07:19:27;18.40;99.90
29281;DHT22;25048;49.590;11.026;2023-05-15T07:21:54;18.30;99.90
29281;DHT22;25048;49.590;11.026;2023-05-15T07:24:22;18.20;99.90
29281;DHT22;25048;49.590;11.026;2023-05-15T07:26:49;18.00;99.90
29281;DHT22;25048;49.590;11.026;2023-05-15T07:29:17;18.00;99.90
29281;DHT22;25048;49.590;11.026;2023-05-15T07:31:44;18.00;99.90
29281;DHT22;25048;49.590;11.026;2023-05-15T07:34:12;18.10;99.90
29281;DHT22;25048;49.590;11.026;2023-05-15T07:36:39;18.00;99.90
29281;DHT22;25048;49.590;11.026;2023-05-15T07:39:07;18.10;99.90
29281;DHT22;25048;49.590;11.026;2023-05-15T07:41:34;18.40;99.90
29281;DHT22;25048;49.590;11.026;2023-05-15T07:44:02;18.70;99.90
29281;DHT22;25048;49.590;11.026;2023-05-15T07:46:29;18.80;99.90
29281;DHT22;25048;49.590;11.026;2023-05-15T07:48:57;19.00;99.90
29281;DHT22;25048;49.590;11.026;2023-05-15T07:51:24;18.90;99.90
29281;DHT22;25048;49.590;11.026;2023-05-15T07:53:52;19.00;99.90
29281;DHT22;25048;49.590;11.026;2023-05-15T07:56:19;19.20;99.90
29281;DHT22;25048;49.590;11.026;2023-05-15T07:58:47;19.50;99.90
29281;DHT22;25048;49.590;11.026;2023-05-15T08:01:15;19.70;99.90
29281;DHT22;25048;49.590;11.026;2023-05-15T08:03:43;19.70;99.90
29281;DHT22;25048;49.590;11.026;2023-05-15T08:06:11;19.90;99.90
29281;DHT22;25048;49.590;11.026;2023-05-15T08:08:38;20.00;99.90
29281;DHT22;25048;49.590;11.026;2023-05-15T08:11:05;19.80;99.90
29281;DHT22;25048;49.590;11.026;2023-05-15T08:13:33;19.80;99.90
29281;DHT22;25048;49.590;11.026;2023-05-15T08:16:01;19.80;99.90
29281;DHT22;25048;49.590;11.026;2023-05-15T08:18:28;19.80;99.90
29281;DHT22;25048;49.590;11.026;2023-05-15T08:20:56;19.90;99.90
29281;DHT22;25048;49.590;11.026;2023-05-15T08:23:23;19.90;99.90
29281;DHT22;25048;49.590;11.026;2023-05-15T08:25:50;19.70;99.90
29281;DHT22;25048;49.590;11.026;2023-05-15T08:28:18;19.40;99.90
29281;DHT22;25048;49.590;11.026;2023-05-15T08:30:45;19.30;99.90
29281;DHT22;25048;49.590;11.026;2023-05-15T08:33:13;19.50;99.90
29281;DHT22;25048;49.590;11.026;2023-05-15T08:35:40;19.70;99.90
29281;DHT22;25048;49.590;11.026;2023-05-15T08:38:08;20.10;99.90
29281;DHT22;25048;49.590;11.026;2023-05-15T08:40:36;20.60;99.90
29281;DHT22;25048;49.590;11.026;2023-05-15T08:43:07;20.80;99.90
29281;DHT22;25048;49.590;11.026;2023-05-15T08:45:35;20.50;99.90
29281;DHT22;25048;49.590;11.026;2023-05-15T08:48:05;20.20;99.90
29281;DHT22;25048;49.590;11.026;2023-05-15T08:50:33;20.10;99.90
29281;DHT22;25048;49.590;11.026;2023-05-15T08:53:02;20.10;99.90
29281;DHT22;25048;49.590;11.026;2023-05-15T08:55:29;20.20;99.90
29281;DHT22;25048;49.590;11.026;2023-05-15T08:57:58;20.30;99.90
29281;DHT22;25048;49.590;11.026;2023-05-15T09:00:26;20.50;99.90
29281;DHT22;25048;49.590;11.026;2023-05-15T09:02:54;20.70;99.90
29281;DHT22;25048;49.590;11.026;2023-05-15T09:05:21;21.20;99.90
29281;DHT22;25048;49.590;11.026;2023-05-15T09:07:50;22.00;99.90
29281;DHT22;25048;49.590;11.026;2023-05-15T09:10:20;22.50;99.90
29281;DHT22;25048;49.590;11.026;2023-05-15T09:12:50;22.60;99.90
29281;DHT22;25048;49.590;11.026;2023-05-15T09:15:20;22.40;99.90
29281;DHT22;25048;49.590;11.026;2023-05-15T09:17:50;21.90;99.90
29281;DHT22;25048;49.590;11.026;2023-05-15T09:20:32;21.60;99.90
29281;DHT22;25048;49.590;11.026;2023-05-15T09:23:02;21.20;99.90
29281;DHT22;25048;49.590;11.026;2023-05-15T09:25:35;20.70;99.90
29281;DHT22;25048;49.590;11.026;2023-05-15T09:28:23;20.30;99.90
29281;DHT22;25048;49.590;11.026;2023-05-15T09:30:40;20.10;99.90
29281;DHT22;25048;49.590;11.026;2023-05-15T09:33:09;20.00;99.90
29281;DHT22;25048;49.590;11.026;2023-05-15T09:35:38;19.90;99.90
29281;DHT22;25048;49.590;11.026;2023-05-15T09:38:11;20.40;99.90
29281;DHT22;25048;49.590;11.026;2023-05-15T09:40:39;20.80;99.90
29281;DHT22;25048;49.590;11.026;2023-05-15T09:43:09;20.80;99.90
29281;DHT22;25048;49.590;11.026;2023-05-15T09:45:38;20.70;99.90
29281;DHT22;25048;49.590;11.026;2023-05-15T09:48:06;20.20;99.90
29281;DHT22;25048;49.590;11.026;2023-05-15T09:50:37;19.40;99.90
29281;DHT22;25048;49.590;11.026;2023-05-15T09:53:05;18.40;99.90
29281;DHT22;25048;49.590;11.026;2023-05-15T09:55:33;17.70;99.90
29281;DHT22;25048;49.590;11.026;2023-05-15T09:58:13;17.20;99.90
29281;DHT22;25048;49.590;11.026;2023-05-15T10:00:42;16.80;99.90
29281;DHT22;25048;49.590;11.026;2023-05-15T10:03:10;16.70;99.90
29281;DHT22;25048;49.590;11.026;2023-05-15T10:05:38;16.60;99.90
29281;DHT22;25048;49.590;11.026;2023-05-15T10:08:06;16.60;99.90
29281;DHT22;25048;49.590;11.026;2023-05-15T10:10:33;16.80;99.90
29281;DHT22;25048;49.590;11.026;2023-05-15T10:13:01;16.90;99.90
29281;DHT22;25048;49.590;11.026;2023-05-15T10:15:31;17.10;99.90
29281;DHT22;25048;49.590;11.026;2023-05-15T10:17:59;17.40;99.90
29281;DHT22;25048;49.590;11.026;2023-05-15T10:20:26;17.70;99.90
29281;DHT22;25048;49.590;11.026;2023-05-15T10:22:56;18.00;99.90
29281;DHT22;25048;49.590;11.026;2023-05-15T10:25:37;18.30;99.90
29281;DHT22;25048;49.590;11.026;2023-05-15T10:28:07;18.50;99.90
29281;DHT22;25048;49.590;11.026;2023-05-15T10:30:36;18.80;99.90
29281;DHT22;25048;49.590;11.026;2023-05-15T10:33:06;19.10;99.90
29281;DHT22;25048;49.590;11.026;2023-05-15T10:35:42;19.50;99.90
29281;DHT22;25048;49.590;11.026;2023-05-15T10:38:06;19.90;99.90
29281;DHT22;25048;49.590;11.026;2023-05-15T10:40:36;20.40;99.90
29281;DHT22;25048;49.590;11.026;2023-05-15T10:43:04;20.80;99.90
29281;DHT22;25048;49.590;11.026;2023-05-15T10:45:33;21.10;99.90
29281;DHT22;25048;49.590;11.026;2023-05-15T10:48:02;21.30;99.90
29281;DHT22;25048;49.590;11.026;2023-05-15T10:50:31;21.20;99.90
29281;DHT22;25048;49.590;11.026;2023-05-15T10:52:59;21.10;99.90
29281;DHT22;25048;49.590;11.026;2023-05-15T10:55:27;20.90;99.90
29281;DHT22;25048;49.590;11.026;2023-05-15T10:57:56;20.90;99.90
29281;DHT22;25048;49.590;11.026;2023-05-15T11:00:25;21.30;99.90
29281;DHT22;25048;49.590;11.026;2023-05-15T11:02:53;21.50;99.90
29281;DHT22;25048;49.590;11.026;2023-05-15T11:05:23;21.30;99.90
29281;DHT22;25048;49.590;11.026;2023-05-15T11:10:46;20.80;99.90
29281;DHT22;25048;49.590;11.026;2023-05-15T11:13:13;20.50;99.90
29281;DHT22;25048;49.590;11.026;2023-05-15T11:15:43;20.30;99.90
29281;DHT22;25048;49.590;11.026;2023-05-15T11:18:11;20.20;99.90
29281;DHT22;25048;49.590;11.026;2023-05-15T11:20:40;20.00;99.90
29281;DHT22;25048;49.590;11.026;2023-05-15T11:23:08;20.40;99.90
29281;DHT22;25048;49.590;11.026;2023-05-15T11:25:36;21.10;99.90
29281;DHT22;25048;49.590;11.026;2023-05-15T11:28:04;21.80;99.90
29281;DHT22;25048;49.590;11.026;2023-05-15T11:30:39;22.30;99.90
29281;DHT22;25048;49.590;11.026;2023-05-15T11:33:11;23.00;99.90
29281;DHT22;25048;49.590;11.026;2023-05-15T11:35:45;23.50;99.90
29281;DHT22;25048;49.590;11.026;2023-05-15T11:38:17;24.10;99.90
29281;DHT22;25048;49.590;11.026;2023-05-15T11:40:54;24.80;99.90
29281;DHT22;25048;49.590;11.026;2023-05-15T11:43:23;25.30;97.90
29281;DHT22;25048;49.590;11.026;2023-05-15T11:45:55;25.40;95.80
29281;DHT22;25048;49.590;11.026;2023-05-15T11:48:36;25.00;93.70
29281;DHT22;25048;49.590;11.026;2023-05-15T11:51:04;24.40;92.10
29281;DHT22;25048;49.590;11.026;2023-05-15T11:53:32;23.80;92.00
29281;DHT22;25048;49.590;11.026;2023-05-15T11:56:00;23.20;93.60
29281;DHT22;25048;49.590;11.026;2023-05-15T11:58:27;23.00;96.80
29281;DHT22;25048;49.590;11.026;2023-05-15T12:00:57;23.10;94.30
29281;DHT22;25048;49.590;11.026;2023-05-15T12:03:30;23.00;94.00
29281;DHT22;25048;49.590;11.026;2023-05-15T12:05:54;22.80;95.30
29281;DHT22;25048;49.590;11.026;2023-05-15T12:08:23;22.60;93.00
29281;DHT22;25048;49.590;11.026;2023-05-15T12:10:50;22.30;92.90
29281;DHT22;25048;49.590;11.026;2023-05-15T12:13:18;21.90;92.10
29281;DHT22;25048;49.590;11.026;2023-05-15T12:15:46;21.60;92.50
29281;DHT22;25048;49.590;11.026;2023-05-15T12:18:13;21.50;94.60
29281;DHT22;25048;49.590;11.026;2023-05-15T12:20:41;21.30;94.30
29281;DHT22;25048;49.590;11.026;2023-05-15T12:23:14;21.10;94.70
29281;DHT22;25048;49.590;11.026;2023-05-15T12:25:43;21.10;95.90
29281;DHT22;25048;49.590;11.026;2023-05-15T12:28:15;21.30;94.60
29281;DHT22;25048;49.590;11.026;2023-05-15T12:30:43;21.30;95.30
29281;DHT22;25048;49.590;11.026;2023-05-15T12:33:11;21.40;95.10
29281;DHT22;25048;49.590;11.026;2023-05-15T12:35:43;21.60;96.50
29281;DHT22;25048;49.590;11.026;2023-05-15T12:38:15;22.40;94.70
29281;DHT22;25048;49.590;11.026;2023-05-15T12:40:45;23.40;93.10
29281;DHT22;25048;49.590;11.026;2023-05-15T12:43:15;24.10;92.30
29281;DHT22;25048;49.590;11.026;2023-05-15T12:45:42;24.90;91.10
29281;DHT22;25048;49.590;11.026;2023-05-15T12:48:14;25.50;86.80
29281;DHT22;25048;49.590;11.026;2023-05-15T12:50:43;25.70;85.80
29281;DHT22;25048;49.590;11.026;2023-05-15T12:53:13;26.20;83.40
29281;DHT22;25048;49.590;11.026;2023-05-15T12:55:43;26.20;84.30
29281;DHT22;25048;49.590;11.026;2023-05-15T12:58:13;25.70;86.60
29281;DHT22;25048;49.590;11.026;2023-05-15T13:00:43;25.00;89.90
29281;DHT22;25048;49.590;11.026;2023-05-15T13:03:12;24.60;90.50
29281;DHT22;25048;49.590;11.026;2023-05-15T13:05:42;24.50;90.50
29281;DHT22;25048;49.590;11.026;2023-05-15T13:08:15;24.70;91.30
29281;DHT22;25048;49.590;11.026;2023-05-15T13:10:44;24.90;91.10
29281;DHT22;25048;49.590;11.026;2023-05-15T13:13:13;25.80;89.60
29281;DHT22;25048;49.590;11.026;2023-05-15T13:15:44;26.50;88.50
29281;DHT22;25048;49.590;11.026;2023-05-15T13:18:16;26.60;87.20
29281;DHT22;25048;49.590;11.026;2023-05-15T13:20:45;26.20;85.90
29281;DHT22;25048;49.590;11.026;2023-05-15T13:23:15;25.90;84.30
29281;DHT22;25048;49.590;11.026;2023-05-15T13:25:43;25.50;84.90
29281;DHT22;25048;49.590;11.026;2023-05-15T13:28:11;25.40;83.80
29281;DHT22;25048;49.590;11.026;2023-05-15T13:30:40;25.40;83.80
29281;DHT22;25048;49.590;11.026;2023-05-15T13:33:09;25.40;86.90
29281;DHT22;25048;49.590;11.026;2023-05-15T13:35:38;25.30;88.40
29281;DHT22;25048;49.590;11.026;2023-05-15T13:38:06;25.20;89.80
29281;DHT22;25048;49.590;11.026;2023-05-15T13:40:34;25.40;87.10
29281;DHT22;25048;49.590;11.026;2023-05-15T13:43:02;25.70;85.50
29281;DHT22;25048;49.590;11.026;2023-05-15T13:45:31;26.10;85.90
29281;DHT22;25048;49.590;11.026;2023-05-15T13:47:59;26.70;86.30
29281;DHT22;25048;49.590;11.026;2023-05-15T13:50:27;27.40;84.90
29281;DHT22;25048;49.590;11.026;2023-05-15T13:52:54;27.80;80.90
29281;DHT22;25048;49.590;11.026;2023-05-15T13:55:22;28.30;81.90
29281;DHT22;25048;49.590;11.026;2023-05-15T13:57:51;29.00;80.70
29281;DHT22;25048;49.590;11.026;2023-05-15T14:00:19;29.50;76.80
29281;DHT22;25048;49.590;11.026;2023-05-15T14:02:47;29.80;72.60
29281;DHT22;25048;49.590;11.026;2023-05-15T14:05:15;29.70;69.10
29281;DHT22;25048;49.590;11.026;2023-05-15T14:07:43;29.90;73.80
29281;DHT22;25048;49.590;11.026;2023-05-15T14:10:10;30.40;70.10
29281;DHT22;25048;49.590;11.026;2023-05-15T14:12:38;30.70;67.50
29281;DHT22;25048;49.590;11.026;2023-05-15T14:15:08;30.30;64.60
29281;DHT22;25048;49.590;11.026;2023-05-15T14:17:37;29.80;64.60
29281;DHT22;25048;49.590;11.026;2023-05-15T14:20:05;29.40;65.90
29281;DHT22;25048;49.590;11.026;2023-05-15T14:22:33;29.20;61.90
29281;DHT22;25048;49.590;11.026;2023-05-15T14:25:01;29.30;63.30
29281;DHT22;25048;49.590;11.026;2023-05-15T14:27:29;29.20;65.30
29281;DHT22;25048;49.590;11.026;2023-05-15T14:29:56;29.60;63.30
29281;DHT22;25048;49.590;11.026;2023-05-15T14:32:24;29.90;60.00
29281;DHT22;25048;49.590;11.026;2023-05-15T14:34:52;30.40;63.40
29281;DHT22;25048;49.590;11.026;2023-05-15T14:37:19;30.40;62.40
29281;DHT22;25048;49.590;11.026;2023-05-15T14:39:47;29.90;62.00
29281;DHT22;25048;49.590;11.026;2023-05-15T14:42:14;29.10;58.30
29281;DHT22;25048;49.590;11.026;2023-05-15T14:44:42;28.20;62.00
29281;DHT22;25048;49.590;11.026;2023-05-15T14:47:11;27.50;63.40
29281;DHT22;25048;49.590;11.026;2023-05-15T14:49:40;26.90;62.70
29281;DHT22;25048;49.590;11.026;2023-05-15T14:52:08;26.60;64.80
29281;DHT22;25048;49.590;11.026;2023-05-15T14:54:38;26.60;65.70
29281;DHT22;25048;49.590;11.026;2023-05-15T14:57:06;26.50;65.50
29281;DHT22;25048;49.590;11.026;2023-05-15T14:59:33;26.60;66.50
29281;DHT22;25048;49.590;11.026;2023-05-15T15:02:01;27.10;67.60
29281;DHT22;25048;49.590;11.026;2023-05-15T15:04:30;28.60;67.60
29281;DHT22;25048;49.590;11.026;2023-05-15T15:07:02;30.30;61.90
29281;DHT22;25048;49.590;11.026;2023-05-15T15:09:28;31.50;57.70
29281;DHT22;25048;49.590;11.026;2023-05-15T15:11:56;32.70;52.30
29281;DHT22;25048;49.590;11.026;2023-05-15T15:14:23;33.60;52.40
29281;DHT22;25048;49.590;11.026;2023-05-15T15:16:51;34.50;51.20
29281;DHT22;25048;49.590;11.026;2023-05-15T15:19:18;35.10;48.00
29281;DHT22;25048;49.590;11.026;2023-05-15T15:21:46;35.80;50.20
29281;DHT22;25048;49.590;11.026;2023-05-15T15:24:14;36.40;46.70
29281;DHT22;25048;49.590;11.026;2023-05-15T15:26:41;36.80;45.50
29281;DHT22;25048;49.590;11.026;2023-05-15T15:29:09;36.70;44.10
29281;DHT22;25048;49.590;11.026;2023-05-15T15:31:36;37.10;42.60
29281;DHT22;25048;49.590;11.026;2023-05-15T15:34:04;37.00;43.70
29281;DHT22;25048;49.590;11.026;2023-05-15T15:36:33;37.00;43.10
29281;DHT22;25048;49.590;11.026;2023-05-15T15:39:02;36.90;40.90
29281;DHT22;25048;49.590;11.026;2023-05-15T15:41:30;36.10;42.20